createdAt,value
2022-08-31T00:01:07.834Z,96067.47
2022-08-31T00:03:55.466Z,96057.47
2022-08-31T00:06:24.664Z,96062.94
2022-08-31T00:08:53.664Z,96061.22
2022-08-31T00:11:29.196Z,96057.72
2022-08-31T00:14:01.297Z,96059.44
2022-08-31T00:16:33.027Z,96050.69
2022-08-31T00:19:04.013Z,96051.19
2022-08-31T00:21:33.184Z,96032.44
2022-08-31T00:24:02.116Z,96030.75
2022-08-31T00:26:30.908Z,96019.25
2022-08-31T00:28:59.852Z,96019.28
2022-08-31T00:31:29.718Z,96014.25
2022-08-31T00:33:58.651Z,96013.78
2022-08-31T00:36:28.601Z,96008.28
2022-08-31T00:38:58.820Z,96020.44
2022-08-31T00:41:30.473Z,96020.00
2022-08-31T00:44:02.530Z,96008.97
2022-08-31T00:46:35.316Z,96011.91
2022-08-31T00:49:09.041Z,96015.50
2022-08-31T00:51:43.194Z,96011.75
2022-08-31T00:54:15.517Z,96009.50
2022-08-31T00:56:45.735Z,96006.47
2022-08-31T00:59:16.103Z,96008.06
2022-08-31T01:01:46.404Z,96001.16
2022-08-31T01:04:16.467Z,95996.56
2022-08-31T01:06:45.919Z,95984.63
2022-08-31T01:09:17.047Z,95979.66
2022-08-31T01:11:46.300Z,95981.81
2022-08-31T01:14:15.356Z,95977.31
2022-08-31T01:16:52.744Z,95976.28
2022-08-31T01:19:53.867Z,95976.16
2022-08-31T01:22:48.184Z,95981.44
2022-08-31T01:25:17.141Z,95968.88
2022-08-31T01:27:47.111Z,95977.81
2022-08-31T01:30:24.376Z,95986.50
2022-08-31T01:32:53.568Z,95979.69
2022-08-31T01:35:22.443Z,95979.94
2022-08-31T01:37:52.714Z,95970.53
2022-08-31T01:40:22.448Z,95965.00
2022-08-31T01:42:51.619Z,95977.25
2022-08-31T01:45:20.688Z,95968.44
2022-08-31T01:47:55.596Z,95964.00
2022-08-31T01:50:33.521Z,95957.44
2022-08-31T01:53:06.589Z,95948.13
2022-08-31T01:55:43.060Z,95943.97
2022-08-31T01:58:20.051Z,95945.50
2022-08-31T02:01:32.902Z,95946.41
2022-08-31T02:04:09.064Z,95945.19
2022-08-31T02:06:46.203Z,95941.59
2022-08-31T02:09:17.142Z,95926.31
2022-08-31T02:11:48.163Z,95936.66
2022-08-31T02:14:19.171Z,95924.31
2022-08-31T02:16:49.643Z,95911.59
2022-08-31T02:19:18.718Z,95934.28
2022-08-31T02:21:47.566Z,95932.75
2022-08-31T02:24:16.675Z,95931.13
2022-08-31T02:26:45.555Z,95927.41
2022-08-31T02:29:14.523Z,95929.09
2022-08-31T02:31:43.573Z,95918.25
2022-08-31T02:34:14.739Z,95913.78
2022-08-31T02:36:45.811Z,95904.81
2022-08-31T02:39:16.109Z,95912.16
2022-08-31T02:41:47.119Z,95895.28
2022-08-31T02:44:16.351Z,95897.41
2022-08-31T02:46:48.831Z,95888.78
2022-08-31T02:49:37.693Z,95889.59
2022-08-31T02:52:06.860Z,95875.75
2022-08-31T02:54:35.918Z,95899.22
2022-08-31T02:57:05.021Z,95870.44
2022-08-31T02:59:34.966Z,95889.53
2022-08-31T03:02:05.215Z,95880.66
2022-08-31T03:04:35.926Z,95884.00
2022-08-31T03:07:04.933Z,95862.09
2022-08-31T03:09:33.867Z,95884.72
2022-08-31T03:12:05.040Z,95863.69
2022-08-31T03:14:34.452Z,95874.56
2022-08-31T03:17:04.068Z,95871.47
2022-08-31T03:19:35.219Z,95853.69
2022-08-31T03:22:05.741Z,95823.00
2022-08-31T03:24:34.638Z,95837.28
2022-08-31T03:27:04.029Z,95855.09
2022-08-31T03:29:33.061Z,95854.13
2022-08-31T03:32:20.932Z,95817.78
2022-08-31T03:35:01.230Z,95848.09
2022-08-31T03:37:32.000Z,95847.50
2022-08-31T03:40:02.492Z,95857.25
2022-08-31T03:42:33.958Z,95830.75
2022-08-31T03:45:04.800Z,95846.09
2022-08-31T03:47:44.559Z,95846.72
2022-08-31T03:50:16.932Z,95819.72
2022-08-31T03:53:05.130Z,95826.03
2022-08-31T03:55:35.945Z,95818.16
2022-08-31T03:58:07.066Z,95821.78
2022-08-31T04:00:37.202Z,95827.34
2022-08-31T04:03:15.196Z,95811.69
2022-08-31T04:06:02.646Z,95820.09
2022-08-31T04:08:52.010Z,95811.19
2022-08-31T04:11:53.018Z,95787.56
2022-08-31T04:14:59.941Z,95808.81
2022-08-31T04:17:47.901Z,95797.31
2022-08-31T04:20:44.823Z,95785.78
2022-08-31T04:23:13.963Z,95786.44
2022-08-31T04:25:52.404Z,95784.72
2022-08-31T04:28:21.377Z,95787.44
2022-08-31T04:30:50.708Z,95770.56
2022-08-31T04:33:20.099Z,95781.44
2022-08-31T04:35:49.359Z,95786.50
2022-08-31T04:38:18.474Z,95779.78
2022-08-31T04:40:49.745Z,95754.94
2022-08-31T04:43:24.112Z,95748.88
2022-08-31T04:45:55.061Z,95771.16
2022-08-31T04:48:35.649Z,95750.19
2022-08-31T04:51:12.901Z,95759.72
2022-08-31T04:53:43.311Z,95759.47
2022-08-31T04:56:16.077Z,95763.47
2022-08-31T04:58:50.530Z,95743.28
2022-08-31T05:01:23.731Z,95758.69
2022-08-31T05:04:15.977Z,95748.81
2022-08-31T05:06:46.932Z,95736.94
2022-08-31T05:09:24.583Z,95731.31
2022-08-31T05:11:56.266Z,95746.41
2022-08-31T05:14:27.099Z,95729.19
2022-08-31T05:17:01.886Z,95734.72
2022-08-31T05:19:36.911Z,95737.31
2022-08-31T05:22:08.539Z,95737.84
2022-08-31T05:24:39.609Z,95729.84
2022-08-31T05:27:08.949Z,95735.19
2022-08-31T05:29:38.229Z,95711.19
2022-08-31T05:32:27.628Z,95726.84
2022-08-31T05:35:00.981Z,95723.34
2022-08-31T05:37:32.514Z,95721.03
2022-08-31T05:40:01.628Z,95698.59
2022-08-31T05:42:32.547Z,95699.50
2022-08-31T05:45:01.917Z,95687.19
2022-08-31T05:47:32.929Z,95675.53
2022-08-31T05:50:02.183Z,95681.31
2022-08-31T05:52:31.899Z,95695.34
2022-08-31T05:55:00.964Z,95685.84
2022-08-31T05:57:32.593Z,95676.06
2022-08-31T06:00:02.143Z,95677.59
2022-08-31T06:02:34.656Z,95681.28
2022-08-31T06:05:04.106Z,95675.28
2022-08-31T06:07:34.014Z,95673.50
2022-08-31T06:10:06.129Z,95674.16
2022-08-31T06:12:38.679Z,95666.88
2022-08-31T06:15:08.695Z,95669.47
2022-08-31T06:17:39.180Z,95662.22
2022-08-31T06:20:13.113Z,95670.00
2022-08-31T06:22:47.387Z,95665.53
2022-08-31T06:25:25.178Z,95662.03
2022-08-31T06:27:55.784Z,95672.28
2022-08-31T06:30:27.943Z,95664.69
2022-08-31T06:33:00.512Z,95653.69
2022-08-31T06:35:40.918Z,95663.88
2022-08-31T06:38:28.893Z,95659.38
2022-08-31T06:41:24.726Z,95653.03
2022-08-31T06:44:49.653Z,95645.97
2022-08-31T06:47:24.025Z,95648.13
2022-08-31T06:49:54.452Z,95639.13
2022-08-31T06:52:24.791Z,95639.66
2022-08-31T06:55:09.301Z,95625.03
2022-08-31T07:00:52.921Z,95636.84
2022-08-31T07:03:36.854Z,95629.72
2022-08-31T07:06:15.445Z,95629.34
2022-08-31T07:08:47.246Z,95617.88
2022-08-31T07:11:21.733Z,95608.97
2022-08-31T07:13:55.073Z,95632.25
2022-08-31T07:16:27.729Z,95620.06
2022-08-31T07:19:28.158Z,95614.19
2022-08-31T07:22:01.660Z,95598.16
2022-08-31T07:24:33.900Z,95590.81
2022-08-31T07:27:19.179Z,95595.84
2022-08-31T07:29:53.698Z,95599.69
2022-08-31T07:32:23.585Z,95596.63
2022-08-31T07:34:59.842Z,95594.44
2022-08-31T07:37:52.551Z,95584.56
2022-08-31T07:40:45.328Z,95581.59
2022-08-31T07:43:16.914Z,95584.97
2022-08-31T07:45:48.879Z,95579.34
2022-08-31T07:48:23.997Z,95579.41
2022-08-31T07:51:18.530Z,95569.94
2022-08-31T07:53:58.686Z,95567.59
2022-08-31T07:56:38.793Z,95570.69
2022-08-31T07:59:15.583Z,95575.28
2022-08-31T08:01:49.583Z,95558.75
2022-08-31T08:04:27.578Z,95547.84
2022-08-31T08:07:18.291Z,95541.66
2022-08-31T08:10:14.755Z,95548.34
2022-08-31T08:13:05.821Z,95533.16
2022-08-31T08:15:48.643Z,95542.00
2022-08-31T08:18:43.976Z,95531.06
2022-08-31T08:21:15.498Z,95537.28
2022-08-31T08:23:44.850Z,95527.09
2022-08-31T08:26:54.305Z,95524.22
2022-08-31T08:29:42.326Z,95518.78
2022-08-31T08:32:19.670Z,95518.00
2022-08-31T08:34:48.842Z,95513.69
2022-08-31T08:37:23.969Z,95504.59
2022-08-31T08:40:06.048Z,95516.59
2022-08-31T08:42:39.368Z,95514.47
2022-08-31T08:45:10.394Z,95499.03
2022-08-31T08:47:40.578Z,95508.00
2022-08-31T08:50:11.165Z,95501.81
2022-08-31T08:52:47.792Z,95503.41
2022-08-31T08:55:23.582Z,95489.09
2022-08-31T08:57:56.834Z,95487.84
2022-08-31T09:00:29.327Z,95480.75
2022-08-31T09:03:18.200Z,95484.25
2022-08-31T09:06:10.945Z,95483.00
2022-08-31T09:08:55.720Z,95472.06
2022-08-31T09:11:55.495Z,95457.72
2022-08-31T09:14:49.471Z,95456.16
2022-08-31T09:17:34.078Z,95457.63
2022-08-31T09:20:06.963Z,95451.97
2022-08-31T09:22:51.265Z,95455.81
2022-08-31T09:25:30.368Z,95437.69
2022-08-31T09:28:12.079Z,95454.91
2022-08-31T09:30:53.730Z,95437.66
2022-08-31T09:33:26.709Z,95437.19
2022-08-31T09:36:17.359Z,95437.16
2022-08-31T09:38:48.478Z,95429.34
2022-08-31T09:41:30.045Z,95434.19
2022-08-31T09:44:24.162Z,95413.75
2022-08-31T09:47:01.988Z,95431.84
2022-08-31T09:49:37.545Z,95420.84
2022-08-31T09:52:47.863Z,95423.50
2022-08-31T09:55:25.875Z,95416.88
2022-08-31T09:57:59.630Z,95427.97
2022-08-31T10:00:52.630Z,95417.59
2022-08-31T10:03:30.123Z,95412.88
2022-08-31T10:06:01.841Z,95405.63
2022-08-31T10:08:53.384Z,95406.06
2022-08-31T10:11:23.872Z,95395.25
2022-08-31T10:14:05.178Z,95391.78
2022-08-31T10:16:36.960Z,95392.72
2022-08-31T10:19:12.395Z,95400.38
2022-08-31T10:21:54.090Z,95389.25
2022-08-31T10:24:44.306Z,95385.53
2022-08-31T10:27:32.209Z,95380.41
2022-08-31T10:30:07.689Z,95362.06
2022-08-31T10:33:08.713Z,95366.47
2022-08-31T10:35:50.319Z,95356.66
2022-08-31T10:38:27.384Z,95375.84
2022-08-31T10:41:20.282Z,95372.06
2022-08-31T10:44:06.756Z,95366.66
2022-08-31T10:46:39.375Z,95364.28
2022-08-31T10:49:08.357Z,95384.16
2022-08-31T10:51:49.710Z,95372.03
2022-08-31T10:54:36.341Z,95358.44
2022-08-31T10:57:19.419Z,95370.13
2022-08-31T10:59:55.395Z,95358.88
2022-08-31T11:02:49.165Z,95358.44
2022-08-31T11:05:41.866Z,95346.06
2022-08-31T11:08:20.625Z,95350.22
2022-08-31T11:10:55.459Z,95342.53
2022-08-31T11:13:49.501Z,95339.34
2022-08-31T11:16:49.307Z,95338.94
2022-08-31T11:20:08.455Z,95336.13
2022-08-31T11:23:06.419Z,95337.34
2022-08-31T11:25:36.353Z,95333.00
2022-08-31T11:28:34.737Z,95335.28
2022-08-31T11:31:24.818Z,95344.56
2022-08-31T11:34:17.231Z,95340.91
2022-08-31T11:36:55.047Z,95332.41
2022-08-31T11:39:46.235Z,95347.56
2022-08-31T11:42:31.788Z,95342.69
2022-08-31T11:45:21.025Z,95319.63
2022-08-31T11:48:01.272Z,95341.69
2022-08-31T11:51:07.908Z,95335.69
2022-08-31T11:53:36.679Z,95331.31
2022-08-31T11:56:07.392Z,95332.59
2022-08-31T11:58:40.522Z,95333.13
2022-08-31T12:01:13.263Z,95345.50
2022-08-31T12:03:52.070Z,95348.66
2022-08-31T12:06:32.743Z,95346.78
2022-08-31T12:09:23.091Z,95332.41
2022-08-31T12:11:57.935Z,95346.03
2022-08-31T12:14:51.955Z,95340.78
2022-08-31T12:18:00.640Z,95337.84
2022-08-31T12:21:15.672Z,95351.19
2022-08-31T12:24:22.233Z,95346.13
2022-08-31T12:27:02.245Z,95350.31
2022-08-31T12:29:34.434Z,95352.84
2022-08-31T12:32:28.006Z,95359.34
2022-08-31T12:34:57.052Z,95358.66
2022-08-31T12:37:37.332Z,95346.81
2022-08-31T12:40:27.398Z,95350.91
2022-08-31T12:42:59.410Z,95351.41
2022-08-31T12:45:42.160Z,95346.63
2022-08-31T12:48:21.033Z,95343.22
2022-08-31T12:51:11.895Z,95355.72
2022-08-31T12:53:53.335Z,95353.44
2022-08-31T12:56:41.508Z,95349.28
2022-08-31T12:59:51.273Z,95352.84
2022-08-31T13:02:22.164Z,95341.34
2022-08-31T13:04:51.926Z,95342.28
2022-08-31T13:07:35.846Z,95349.75
2022-08-31T13:10:24.261Z,95352.53
2022-08-31T13:13:00.378Z,95356.84
2022-08-31T13:15:39.445Z,95349.97
2022-08-31T13:18:23.547Z,95352.31
2022-08-31T13:21:06.362Z,95351.22
2022-08-31T13:23:53.278Z,95353.59
2022-08-31T13:26:26.291Z,95346.97
2022-08-31T13:29:04.846Z,95343.13
2022-08-31T13:31:48.366Z,95345.16
2022-08-31T13:34:20.519Z,95340.91
2022-08-31T13:37:00.488Z,95337.81
2022-08-31T13:39:32.506Z,95335.53
2022-08-31T13:42:21.020Z,95330.88
2022-08-31T13:45:03.366Z,95325.44
2022-08-31T13:47:56.726Z,95328.41
2022-08-31T13:50:35.381Z,95319.69
2022-08-31T13:53:26.382Z,95322.59
2022-08-31T13:55:55.847Z,95313.09
2022-08-31T13:58:33.385Z,95311.00
2022-08-31T14:01:26.158Z,95313.28
2022-08-31T14:03:59.507Z,95305.81
2022-08-31T14:06:39.672Z,95304.97
2022-08-31T14:09:16.908Z,95298.66
2022-08-31T14:12:05.016Z,95303.03
2022-08-31T14:14:43.858Z,95294.44
2022-08-31T14:17:17.876Z,95291.34
2022-08-31T14:19:48.137Z,95282.59
2022-08-31T14:22:30.647Z,95290.34
2022-08-31T14:25:01.293Z,95289.66
2022-08-31T14:27:34.265Z,95281.56
2022-08-31T14:30:03.227Z,95286.66
2022-08-31T14:32:33.906Z,95282.47
2022-08-31T14:35:11.605Z,95288.28
2022-08-31T14:37:44.749Z,95281.31
2022-08-31T14:40:14.533Z,95285.97
2022-08-31T14:42:45.195Z,95275.88
2022-08-31T14:45:19.337Z,95277.47
2022-08-31T14:47:52.754Z,95284.19
2022-08-31T14:50:28.871Z,95269.97
2022-08-31T14:53:01.716Z,95281.75
2022-08-31T14:55:30.996Z,95278.00
2022-08-31T14:58:05.865Z,95266.50
2022-08-31T15:00:41.188Z,95263.44
2022-08-31T15:03:12.611Z,95261.56
2022-08-31T15:05:43.509Z,95255.38
2022-08-31T15:08:12.577Z,95258.47
2022-08-31T15:10:43.143Z,95253.34
2022-08-31T15:13:12.030Z,95254.78
2022-08-31T15:15:43.804Z,95251.16
2022-08-31T15:18:15.524Z,95255.69
2022-08-31T15:20:44.316Z,95251.41
2022-08-31T15:23:13.313Z,95242.75
2022-08-31T15:25:44.054Z,95239.97
2022-08-31T15:28:12.961Z,95243.88
2022-08-31T15:30:42.640Z,95241.59
2022-08-31T15:33:15.484Z,95226.94
2022-08-31T15:35:46.365Z,95228.28
2022-08-31T15:38:15.336Z,95231.06
2022-08-31T15:40:44.525Z,95233.03
2022-08-31T15:43:17.285Z,95245.44
2022-08-31T15:45:46.535Z,95237.72
2022-08-31T15:48:33.928Z,95231.75
2022-08-31T15:51:02.958Z,95233.13
2022-08-31T15:53:32.563Z,95236.03
2022-08-31T15:56:06.978Z,95229.69
2022-08-31T15:58:39.514Z,95219.84
2022-08-31T16:01:16.968Z,95211.31
2022-08-31T16:03:54.846Z,95217.44
2022-08-31T16:06:49.558Z,95226.78
2022-08-31T16:09:21.084Z,95210.13
2022-08-31T16:11:51.530Z,95213.63
2022-08-31T16:14:21.273Z,95199.50
2022-08-31T16:16:51.022Z,95215.16
2022-08-31T16:19:35.118Z,95222.19
2022-08-31T16:22:08.855Z,95216.88
2022-08-31T16:24:39.444Z,95215.81
2022-08-31T16:27:12.724Z,95213.69
2022-08-31T16:29:46.286Z,95208.81
2022-08-31T16:32:15.450Z,95208.22
2022-08-31T16:34:44.304Z,95204.47
2022-08-31T16:37:13.177Z,95193.75
2022-08-31T16:39:44.703Z,95199.09
2022-08-31T16:42:14.955Z,95196.38
2022-08-31T16:44:48.060Z,95198.19
2022-08-31T16:47:19.271Z,95194.69
2022-08-31T16:49:48.276Z,95201.44
2022-08-31T16:52:22.109Z,95195.59
2022-08-31T16:54:52.387Z,95194.72
2022-08-31T16:57:24.108Z,95200.59
2022-08-31T16:59:53.397Z,95201.34
2022-08-31T17:02:23.782Z,95191.31
2022-08-31T17:04:54.211Z,95198.78
2022-08-31T17:07:25.520Z,95196.50
2022-08-31T17:10:02.393Z,95188.00
2022-08-31T17:12:33.266Z,95191.50
2022-08-31T17:15:03.835Z,95200.59
2022-08-31T17:17:33.534Z,95201.19
2022-08-31T17:20:02.674Z,95213.78
2022-08-31T17:22:33.918Z,95210.91
2022-08-31T17:25:05.125Z,95205.72
2022-08-31T17:27:35.378Z,95207.94
2022-08-31T17:30:07.733Z,95219.91
2022-08-31T17:32:44.598Z,95213.97
2022-08-31T17:35:19.092Z,95203.09
2022-08-31T17:37:49.607Z,95201.47
2022-08-31T17:40:18.527Z,95201.75
2022-08-31T17:42:48.980Z,95209.97
2022-08-31T17:45:18.055Z,95201.03
2022-08-31T17:47:46.823Z,95195.75
2022-08-31T17:50:18.264Z,95187.38
2022-08-31T17:52:48.005Z,95197.75
2022-08-31T17:55:17.217Z,95194.50
2022-08-31T17:57:46.719Z,95199.75
2022-08-31T18:00:17.315Z,95198.91
2022-08-31T18:02:46.302Z,95198.91
2022-08-31T18:05:16.829Z,95200.34
2022-08-31T18:07:46.838Z,95199.25
2022-08-31T18:10:16.010Z,95207.34
2022-08-31T18:12:45.443Z,95204.59
2022-08-31T18:15:15.014Z,95201.00
2022-08-31T18:17:44.356Z,95201.00
2022-08-31T18:20:13.486Z,95194.91
2022-08-31T18:22:42.663Z,95185.94
2022-08-31T18:25:11.703Z,95181.34
2022-08-31T18:27:40.486Z,95193.44
2022-08-31T18:30:12.398Z,95186.56
2022-08-31T18:32:42.541Z,95194.00
2022-08-31T18:35:18.079Z,95174.13
2022-08-31T18:37:46.839Z,95188.63
2022-08-31T18:40:34.539Z,95197.56
2022-08-31T18:43:21.869Z,95210.19
2022-08-31T18:45:51.499Z,95198.50
2022-08-31T18:48:26.367Z,95206.78
2022-08-31T18:50:59.462Z,95205.19
2022-08-31T18:53:30.593Z,95201.78
2022-08-31T18:56:07.780Z,95201.44
2022-08-31T18:58:38.050Z,95202.28
2022-08-31T19:01:12.104Z,95209.78
2022-08-31T19:03:41.587Z,95207.59
2022-08-31T19:06:18.426Z,95218.41
2022-08-31T19:08:47.905Z,95221.56
2022-08-31T19:11:19.778Z,95218.47
2022-08-31T19:13:51.346Z,95218.16
2022-08-31T19:16:28.724Z,95225.09
2022-08-31T19:18:59.077Z,95219.66
2022-08-31T19:21:33.845Z,95224.09
2022-08-31T19:24:05.281Z,95224.53
2022-08-31T19:26:38.681Z,95232.72
2022-08-31T19:29:11.704Z,95231.59
2022-08-31T19:31:43.747Z,95231.59
2022-08-31T19:34:16.265Z,95225.47
2022-08-31T19:36:46.538Z,95231.34
2022-08-31T19:39:22.795Z,95230.25
2022-08-31T19:42:03.942Z,95229.47
2022-08-31T19:47:25.834Z,95225.22
2022-08-31T19:49:55.671Z,95229.16
2022-08-31T19:52:25.520Z,95233.41
2022-08-31T19:54:54.579Z,95227.69
2022-08-31T19:57:23.381Z,95240.78
2022-08-31T19:59:52.054Z,95227.19
2022-08-31T20:02:22.468Z,95228.34
2022-08-31T20:04:51.542Z,95237.31
2022-08-31T20:07:24.246Z,95234.66
2022-08-31T20:09:57.532Z,95249.88
2022-08-31T20:12:26.645Z,95238.38
2022-08-31T20:14:55.494Z,95240.50
2022-08-31T20:17:24.792Z,95248.00
2022-08-31T20:19:55.833Z,95262.94
2022-08-31T20:22:28.055Z,95256.03
2022-08-31T20:25:01.361Z,95246.44
2022-08-31T20:27:31.582Z,95257.31
2022-08-31T20:30:00.812Z,95264.06
2022-08-31T20:32:29.634Z,95260.47
2022-08-31T20:34:58.370Z,95257.25
2022-08-31T20:37:27.171Z,95265.00
2022-08-31T20:39:56.203Z,95266.19
2022-08-31T20:42:27.186Z,95273.59
2022-08-31T20:44:56.565Z,95280.22
2022-08-31T20:47:43.814Z,95291.84
2022-08-31T20:50:12.647Z,95282.59
2022-08-31T20:52:41.604Z,95286.25
2022-08-31T20:55:12.973Z,95281.72
2022-08-31T20:57:41.815Z,95284.53
2022-08-31T21:00:12.084Z,95291.66
2022-08-31T21:02:41.142Z,95293.25
2022-08-31T21:05:37.073Z,95300.75
2022-08-31T21:08:00.185Z,95294.25
2022-08-31T21:10:36.533Z,95315.31
2022-08-31T21:13:13.445Z,95308.41
2022-08-31T21:15:45.052Z,95314.78
2022-08-31T21:18:17.988Z,95315.66
2022-08-31T21:20:47.673Z,95316.16
2022-08-31T21:23:16.581Z,95316.78
2022-08-31T21:25:46.780Z,95311.19
2022-08-31T21:28:18.949Z,95309.84
2022-08-31T21:30:50.621Z,95311.13
2022-08-31T21:33:20.056Z,95315.91
2022-08-31T21:35:49.225Z,95308.66
2022-08-31T21:38:18.704Z,95317.22
2022-08-31T21:40:49.468Z,95333.53
2022-08-31T21:43:19.189Z,95364.22
2022-08-31T21:45:52.376Z,95362.91
2022-08-31T21:48:25.853Z,95371.69
2022-08-31T21:50:55.814Z,95375.88
2022-08-31T21:53:27.958Z,95377.81
2022-08-31T21:55:56.722Z,95386.97
2022-08-31T21:58:25.638Z,95387.53
2022-08-31T22:00:56.117Z,95390.81
2022-08-31T22:03:25.294Z,95402.97
2022-08-31T22:05:54.949Z,95407.31
2022-08-31T22:08:26.739Z,95410.13
2022-08-31T22:10:56.280Z,95415.28
2022-08-31T22:13:25.068Z,95421.13
2022-08-31T22:15:57.210Z,95409.97
2022-08-31T22:18:59.658Z,95437.84
2022-08-31T22:21:23.583Z,95431.75
2022-08-31T22:23:57.801Z,95434.88
2022-08-31T22:26:28.953Z,95429.94
2022-08-31T22:28:57.758Z,95424.56
2022-08-31T22:31:27.945Z,95416.50
2022-08-31T22:33:57.497Z,95431.56
2022-08-31T22:36:32.626Z,95437.00
2022-08-31T22:39:10.456Z,95453.63
2022-08-31T22:41:41.760Z,95450.94
2022-08-31T22:44:14.840Z,95452.84
2022-08-31T22:46:44.663Z,95445.91
2022-08-31T22:49:14.625Z,95443.22
2022-08-31T22:51:48.871Z,95440.91
2022-08-31T22:54:20.256Z,95445.91
2022-08-31T22:56:50.400Z,95463.69
2022-08-31T22:59:27.803Z,95468.38
2022-08-31T23:02:04.124Z,95473.78
2022-08-31T23:04:35.228Z,95475.31
2022-08-31T23:07:05.052Z,95478.81
2022-08-31T23:09:34.734Z,95471.13
2022-08-31T23:12:05.656Z,95457.59
2022-08-31T23:14:34.854Z,95464.19
2022-08-31T23:17:09.359Z,95464.53
2022-08-31T23:19:41.053Z,95467.63
2022-08-31T23:22:12.356Z,95472.28
2022-08-31T23:24:47.547Z,95471.13
2022-08-31T23:27:19.939Z,95471.13
2022-08-31T23:29:52.174Z,95474.59
2022-08-31T23:32:24.814Z,95473.41
2022-08-31T23:34:54.337Z,95486.16
2022-08-31T23:37:25.873Z,95481.53
2022-08-31T23:39:55.600Z,95493.84
2022-08-31T23:42:26.863Z,95498.09
2022-08-31T23:44:56.682Z,95498.50
2022-08-31T23:47:29.563Z,95495.41
2022-08-31T23:50:00.128Z,95496.94
2022-08-31T23:52:41.924Z,95509.28
2022-08-31T23:55:13.076Z,95501.53
2022-08-31T23:57:42.427Z,95501.16
